Latest Coastal Weather Observations for Robe Airport

IDV60701

Issued at 6:02 am EDT Tuesday 24 October 2017 (issued every 10 minutes, with the page automatically refreshed every 10 minutes)

About coastal observations | Map of coastal stations | Coastal observations for VIC | Marine services | Other Formats
Station Details ID: 026105 Name: ROBE AIRFIELD Lat: -37.18 Lon: 139.81 Height: 3.0 m
Data from the previous 72 hours. | See also: Recent months at Robe Airport
Date/Time
EDT
Temp
°C
Wind Pressure Rain since
9am
mm
Weather Cloud Vis
km
Sea
Height
m
Swell
Dir  Spd
kts
Gust
kts
hPa Trend Height
m
Period
s
Dir
24/06:00am 10.9 ESE 2 3 1016.1 - 0.0 - - - - - - -
24/05:30am 10.8 ESE 2 5 1015.7 - 0.0 - - - - - - -
24/05:00am 11.2 ESE 3 3 1015.9 - 0.0 - - - - - - -
24/04:30am 11.5 SE 4 6 1015.8 - 0.0 - - - - - - -
24/04:00am 11.5 SE 4 6 1015.9 - 0.0 - - - - - - -
24/03:30am 11.3 SE 3 4 1016.1 - 0.0 - - - - - - -
24/03:00am 11.5 ESE 3 4 1016.2 - 0.0 - - - - - - -
24/02:30am 11.6 ESE 4 5 1016.5 - 0.0 - - - - - - -
24/02:00am 11.6 ESE 3 4 1016.8 - 0.0 - - - - - - -
24/01:30am 11.8 ESE 4 5 1016.9 - 0.0 - - - - - - -
24/01:00am 11.9 ESE 4 6 1017.1 - 0.0 - - - - - - -
24/12:30am 12.1 SE 3 5 1017.6 - 0.0 - - - - - - -
24/12:00am 12.1 ESE 4 5 1017.5 - 0.0 - - - - - - -
 
Date/Time
EDT
Temp
°C
Wind Pressure Rain since
9am
mm
Weather Cloud Vis
km
Sea
Height
m
Swell
Dir  Spd
kts
Gust
kts
hPa Trend Height
m
Period
s
Dir
23/11:30pm 12.2 SSE 4 6 1017.6 - 0.0 - - - - - - -
23/11:00pm 11.9 SE 4 6 1017.9 - 0.0 - - - - - - -
23/10:30pm 11.3 S 5 6 1018.0 - 0.0 - - - - - - -
23/10:00pm 12.2 S 3 4 1018.3 - 0.0 - - - - - - -
23/09:30pm 12.5 S 4 5 1018.2 - 0.0 - - - - - - -
23/09:00pm 12.8 SSE 3 5 1017.8 - 0.0 - - - - - - -
23/08:30pm 13.2 SSE 6 8 1017.3 - 0.0 - - - - - - -
23/08:00pm 13.6 S 4 6 1018.3 - 0.0 - - - - - - -
23/07:30pm 13.9 S 3 5 1018.1 - 0.0 - - - - - - -
23/07:00pm 14.1 SSE 2 3 1017.9 - 0.0 - - - - - - -
23/06:30pm 14.3 S 3 4 1017.8 - 0.0 - - - - - - -
23/06:00pm 14.4 S 4 6 1017.8 - 0.0 - - - - - - -
23/05:30pm 14.8 SW 4 6 1018.1 - 0.0 - - - - - - -
23/05:00pm 15.2 SW 5 8 1018.1 - 0.0 - - - - - - -
23/04:30pm 15.1 SW 7 9 1018.2 - 0.0 - - - - - - -
23/04:00pm 16.2 W 4 11 1018.4 - 0.0 - - - - - - -
23/03:30pm 16.2 WSW 7 11 1018.6 - 0.0 - - - - - - -
23/03:00pm 16.8 NNW 6 9 1018.6 - 0.0 - - - - - - -
23/02:30pm 17.1 NW 6 8 1018.8 - 0.0 - - - - - - -
23/02:00pm 15.9 NW 6 8 1019.0 - 0.0 - - - - - - -
23/01:30pm 15.2 W 5 8 1019.3 - 0.0 - - - - - - -
23/01:00pm 15.0 SSW 3 5 1019.5 - 0.0 - - - - - - -
23/12:30pm 14.8 W 3 6 1019.7 - 0.0 - - - - - - -
23/12:00pm 14.4 W 1 3 1020.0 - 0.0 - - - - - - -
23/11:30am 14.0 WSW 3 4 1020.1 - 0.0 - - - - - - -
23/11:00am 13.5 NNW 1 3 1020.3 - 0.0 - - - - - - -
23/10:30am 13.3 WNW 2 4 1020.4 - 0.0 - - - - - - -
23/10:00am 12.9 CALM 0 0 1020.3 - 0.0 - - - - - - -
23/09:30am 13.0 W 2 4 1020.0 - 1.4 - - - - - - -
23/09:00am 12.8 W 2 3 1019.9 - 1.4 - - - - - - -
23/08:30am 12.6 CALM 0 0 1020.0 - 1.4 - - - - - - -
23/08:00am 12.3 W 1 1 1020.0 - 1.4 - - - - - - -
23/07:30am 12.0 W 1 2 1019.9 - 1.4 - - - - - - -
23/07:00am 11.9 CALM 0 0 1019.5 - 1.4 - - - - - - -
23/06:30am 11.8 CALM 0 0 1019.5 - 1.4 - - - - - - -
23/06:00am 11.7 CALM 0 0 1019.4 - 1.4 - - - - - - -
23/05:30am 11.5 CALM 0 0 1019.3 - 1.4 - - - - - - -
23/05:00am 11.3 CALM 0 0 1019.2 - 1.4 - - - - - - -
23/04:30am 10.3 CALM 0 0 1019.2 - 1.4 - - - - - - -
23/04:00am 9.2 CALM 0 1 1019.6 - 1.4 - - - - - - -
23/03:30am 10.6 CALM 0 1 1019.9 - 1.4 - - - - - - -
23/03:00am 10.9 S 2 3 1020.2 - 1.4 - - - - - - -
23/02:30am 11.9 SSE 3 5 1020.2 - 1.4 - - - - - - -
23/02:00am 11.7 SSW 3 5 1020.6 - 1.2 - - - - - - -
23/01:30am 11.8 SSW 5 7 1020.9 - 1.2 - - - - - - -
23/01:00am 12.5 SSW 4 7 1021.2 - 1.2 - - - - - - -
23/12:30am 12.6 SSW 6 9 1021.3 - 1.2 - - - - - - -
23/12:00am 12.4 SSW 6 8 1021.3 - 1.2 - - - - - - -
 
Date/Time
EDT
Temp
°C
Wind Pressure Rain since
9am
mm
Weather Cloud Vis
km
Sea
Height
m
Swell
Dir  Spd
kts
Gust
kts
hPa Trend Height
m
Period
s
Dir
22/11:30pm 12.5 SSW 5 8 1021.4 - 1.2 - - - - - - -
22/11:00pm 12.5 SW 5 9 1021.4 - 1.2 - - - - - - -
22/10:30pm 12.2 SW 5 8 1021.6 - 1.2 - - - - - - -
22/10:00pm 11.6 SSW 4 7 1021.6 - 1.2 - - - - - - -
22/09:30pm 12.5 S 7 11 1021.6 - 1.2 Rain - - - - - -
22/09:00pm 12.1 SW 2 3 1021.4 - 0.6 - - - - - - -
22/08:30pm 12.0 SSW 4 6 1021.2 - 0.6 - - - - - - -
22/08:00pm 12.2 SSW 3 5 1021.0 - 0.4 - - - - - - -
22/07:30pm 12.7 S 6 9 1021.0 - 0.4 - - - - - - -
22/07:00pm 13.4 S 9 13 1020.9 - 0.0 - - - - - - -
22/06:30pm 13.2 SSW 5 8 1020.7 - 0.0 - - - - - - -
22/06:00pm 14.9 SW 9 12 1020.5 - 0.0 - - - - - - -
22/05:30pm 15.2 SSW 8 13 1020.3 - 0.0 - - - - - - -
22/05:00pm 15.4 SSW 8 11 1020.3 - 0.0 - - - - - - -
22/04:30pm 14.8 SW 10 16 1020.6 - 0.0 - - - - - - -
22/04:00pm 14.8 SW 9 13 1020.6 - 0.0 - - - - - - -
22/03:30pm 16.4 SSW 9 15 1020.9 - 0.0 - - - - - - -
22/03:00pm 15.2 SSW 10 14 1021.3 - 0.0 - - - - - - -
22/02:30pm 15.4 SSW 9 14 1021.3 - 0.0 - - - - - - -
22/02:00pm 14.3 SSW 8 13 1021.4 - 0.0 - - - - - - -
22/01:30pm 14.8 SSW 9 15 1021.6 - 0.0 - - - - - - -
22/01:00pm 14.9 SSW 10 15 1021.7 - 0.0 - - - - - - -
22/12:30pm 14.6 SSW 10 15 1021.9 - 0.0 - - - - - - -
22/12:00pm 14.6 SSW 11 15 1022.1 - 0.0 - - - - - - -
22/11:30am 15.1 SSW 11 17 1022.3 - 0.0 - - - - - - -
22/11:00am 14.9 SSW 11 15 1022.3 - 0.0 - - - - - - -
22/10:30am 14.3 SSW 11 15 1022.5 - 0.0 - - - - - - -
22/10:00am 13.5 SSW 13 18 1022.6 - 0.0 - - - - - - -
22/09:30am 13.0 SSW 12 17 1022.4 - 0.8 - - - - - - -
22/09:00am 12.4 SSW 10 16 1022.2 - 0.8 - - - - - - -
22/08:30am 12.2 SSW 10 15 1021.9 - 0.8 - - - - - - -
22/08:00am 12.0 SW 9 15 1021.8 - 0.8 - - - - - - -
22/07:30am 11.8 SSW 6 9 1021.7 - 0.8 - - - - - - -
22/07:00am 11.6 SSW 8 12 1021.5 - 0.8 - - - - - - -
22/06:30am 11.3 SSW 7 11 1021.4 - 0.8 Recent precip. - - - - - -
22/06:00am 11.7 SSW 5 10 1021.4 - 0.8 - - - - - - -
22/05:30am 11.6 SW 7 11 1021.3 - 0.6 - - - - - - -
22/05:00am 11.6 S 5 7 1021.2 - 0.6 - - - - - - -
22/04:30am 11.0 SSW 4 8 1021.4 - 0.6 - - - - - - -
22/04:00am 11.9 SW 9 16 1021.8 - 0.6 - - - - - - -
22/03:30am 11.9 SSW 6 11 1021.9 - 0.6 - - - - - - -
22/03:00am 11.9 SSW 9 13 1022.2 - 0.6 - - - - - - -
22/02:30am 12.1 SSW 8 13 1022.6 - 0.6 - - - - - - -
22/02:00am 12.0 SSW 9 16 1023.1 - 0.6 - - - - - - -
22/01:30am 11.8 SSW 11 17 1023.7 - 0.6 - - - - - - -
22/01:00am 11.7 SSW 9 13 1023.7 - 0.6 - - - - - - -
22/12:30am 11.3 SSW 9 15 1023.9 - 0.6 - - - - - - -
22/12:00am 11.4 S 8 13 1024.2 - 0.6 - - - - - - -
 
Date/Time
EDT
Temp
°C
Wind Pressure Rain since
9am
mm
Weather Cloud Vis
km
Sea
Height
m
Swell
Dir  Spd
kts
Gust
kts
hPa Trend Height
m
Period
s
Dir
21/11:30pm 11.7 SW 11 15 1024.2 - 0.6 - - - - - - -
21/11:00pm 11.6 SSW 9 13 1024.6 - 0.6 - - - - - - -
21/10:30pm 11.3 SSW 7 11 1024.7 - 0.6 - - - - - - -
21/10:00pm 10.6 SSW 9 16 1024.9 - 0.6 - - - - - - -
21/09:30pm 10.6 SSW 7 10 1025.2 - 0.6 Recent precip. - - - - - -
21/09:00pm 11.2 SSW 7 13 1025.2 - 0.6 - - - - - - -
21/08:30pm 10.8 SSW 8 13 1025.1 - 0.4 - - - - - - -
21/08:00pm 10.9 SW 4 6 1025.3 - 0.2 - - - - - - -
21/07:30pm 11.2 SSW 10 15 1025.4 - 0.2 - - - - - - -
21/07:00pm 11.9 SW 5 8 1025.3 - 0.0 - - - - - - -
21/06:30pm 12.2 SSW 9 16 1025.5 - 0.0 - - - - - - -
21/06:00pm 13.0 SSW 12 18 1025.5 - 0.0 - - - - - - -
21/05:30pm 12.5 SSW 10 14 1025.5 - 0.0 - - - - - - -
21/05:00pm 14.1 SW 9 16 1025.7 - 0.0 - - - - - - -
21/04:30pm 13.6 SW 12 17 1025.9 - 0.0 - - - - - - -
21/04:00pm 14.3 SW 11 17 1026.2 - 0.0 - - - - - - -
21/03:30pm 15.2 SW 11 18 1026.5 - 0.0 - - - - - - -
21/03:00pm 13.5 SW 11 18 1027.0 - 0.0 - - - - - - -
21/02:30pm 14.6 SSW 10 16 1027.3 - 0.0 - - - - - - -
21/02:00pm 14.7 SW 9 16 1027.3 - 0.0 - - - - - - -
21/01:30pm 14.8 SW 8 12 1027.5 - 0.0 - - - - - - -
21/01:00pm 14.4 SSW 10 15 1027.9 - 0.0 - - - - - - -
21/12:30pm 14.1 SW 9 13 1028.2 - 0.0 - - - - - - -
21/12:00pm 13.9 SW 9 13 1028.5 - 0.0 - - - - - - -
21/11:30am 14.1 SSW 9 13 1028.9 - 0.0 - - - - - - -
21/11:00am 13.4 SSW 9 13 1029.3 - 0.0 - - - - - - -
21/10:30am 13.0 SSW 8 12 1029.5 - 0.0 - - - - - - -
21/10:00am 12.8 SSW 7 11 1029.4 - 0.0 - - - - - - -
21/09:30am 12.5 SSW 9 15 1029.4 - 0.0 - - - - - - -
21/09:00am 12.3 SSW 7 11 1029.3 - 0.0 - - - - - - -
21/08:30am 12.3 SSW 7 13 1029.2 - 0.0 - - - - - - -
21/08:00am 12.1 SW 9 15 1029.1 - 0.0 - - - - - - -
21/07:30am 11.6 SSW 6 9 1029.0 - 0.0 - - - - - - -
21/07:00am 11.7 SSW 8 11 1028.8 - 0.0 - - - - - - -

Other Formats:

Comma delimited format used in spreadsheet applications
http://www.bom.gov.au/fwo/IDV60701/IDV60701.95816.axf

JavaScript Object Notation format (JSON) in row-major order
http://www.bom.gov.au/fwo/IDV60701/IDV60701.95816.json